createdAt,value
2019-01-23T00:02:58.011Z,31.40
2019-01-23T00:05:18.405Z,29.17
2019-01-23T00:08:01.502Z,33.40
2019-01-23T00:10:40.601Z,32.90
2019-01-23T00:13:17.261Z,30.80
2019-01-23T00:16:07.371Z,32.37
2019-01-23T00:18:34.777Z,31.27
2019-01-23T00:21:33.761Z,31.80
2019-01-23T00:26:22.421Z,31.33
2019-01-23T00:29:03.596Z,33.40
2019-01-23T00:32:08.355Z,30.60
2019-01-23T00:38:02.800Z,32.33
2019-01-23T00:40:42.770Z,30.53
2019-01-23T00:43:26.973Z,29.77
2019-01-23T00:46:00.546Z,30.70
2019-01-23T00:51:28.758Z,31.63
2019-01-23T00:54:09.583Z,31.63
2019-01-23T00:58:06.939Z,31.50
2019-01-23T01:00:07.412Z,32.13
2019-01-23T01:02:54.320Z,32.17
2019-01-23T01:05:58.837Z,31.83
2019-01-23T01:08:40.541Z,32.27
2019-01-23T01:11:30.663Z,34.60
2019-01-23T01:14:39.038Z,33.50
2019-01-23T01:21:30.402Z,34.63
2019-01-23T01:24:18.806Z,33.60
2019-01-23T01:27:30.662Z,33.03
2019-01-23T01:30:02.919Z,35.40
2019-01-23T01:32:21.907Z,33.43
2019-01-23T01:34:51.156Z,34.27
2019-01-23T01:39:56.949Z,34.93
2019-01-23T01:43:05.906Z,32.00
2019-01-23T01:45:42.443Z,33.50
2019-01-23T01:51:11.089Z,36.67
2019-01-23T01:53:22.753Z,37.40
2019-01-23T01:56:19.764Z,35.57
2019-01-23T01:58:34.893Z,35.20
2019-01-23T02:01:17.266Z,36.20
2019-01-23T02:03:35.113Z,35.37
2019-01-23T02:06:05.051Z,34.13
2019-01-23T02:08:59.284Z,35.93
2019-01-23T02:11:23.307Z,34.70
2019-01-23T02:13:46.370Z,35.07
2019-01-23T02:17:09.442Z,37.17
2019-01-23T02:19:54.769Z,33.90
2019-01-23T02:44:34.131Z,32.27
2019-01-23T02:47:25.764Z,32.40
2019-01-23T02:49:57.610Z,34.27
2019-01-23T02:54:49.584Z,33.93
2019-01-23T03:06:13.937Z,32.53
2019-01-23T03:12:29.691Z,36.07
2019-01-23T03:18:42.867Z,35.53
2019-01-23T03:21:19.157Z,32.40
2019-01-23T03:23:37.991Z,31.67
2019-01-23T03:26:02.916Z,34.50
2019-01-23T03:28:50.541Z,34.90
2019-01-23T03:31:41.279Z,33.00
2019-01-23T03:33:57.686Z,32.87
2019-01-23T03:37:07.346Z,30.90
2019-01-23T03:39:25.319Z,35.43
2019-01-23T03:42:31.329Z,35.17
2019-01-23T03:48:50.060Z,34.40
2019-01-23T04:04:34.960Z,34.70
2019-01-23T04:13:17.345Z,35.33
2019-01-23T04:19:24.915Z,33.20
2019-01-23T04:21:59.962Z,31.70
2019-01-23T04:24:41.837Z,34.40
2019-01-23T04:27:33.780Z,34.70
2019-01-23T04:36:14.582Z,35.30
2019-01-23T04:39:07.442Z,34.40
2019-01-23T04:41:59.530Z,34.47
2019-01-23T04:44:43.762Z,33.33
2019-01-23T05:37:54.926Z,32.47
2019-01-23T05:40:22.466Z,33.17
2019-01-23T05:42:43.693Z,33.07
2019-01-23T05:51:32.101Z,34.23
2019-01-23T05:54:05.925Z,35.17
2019-01-23T05:57:17.281Z,35.07
2019-01-23T05:59:38.918Z,36.77
2019-01-23T06:02:35.204Z,35.40
2019-01-23T06:08:07.857Z,34.47
2019-01-23T06:10:41.389Z,37.23
2019-01-23T06:15:28.560Z,33.47
2019-01-23T06:17:32.602Z,33.00
2019-01-23T06:19:38.551Z,30.60
2019-01-23T06:21:44.164Z,33.57
2019-01-23T06:23:48.355Z,33.67
2019-01-23T06:26:29.068Z,33.47
2019-01-23T06:28:40.455Z,31.27
2019-01-23T06:31:00.540Z,33.40
2019-01-23T06:33:22.219Z,31.37
2019-01-23T06:35:26.328Z,32.97
2019-01-23T06:37:59.647Z,29.97
2019-01-23T06:40:10.881Z,33.20
2019-01-23T06:42:42.915Z,31.17
2019-01-23T06:45:02.342Z,30.30
2019-01-23T06:47:23.827Z,30.73
2019-01-23T06:52:35.404Z,32.57
2019-01-23T06:54:34.557Z,33.27
2019-01-23T06:57:02.676Z,34.50
2019-01-23T06:59:23.032Z,32.63
2019-01-23T07:05:23.336Z,33.50
2019-01-23T07:11:50.685Z,33.17
2019-01-23T07:15:00.789Z,34.73
2019-01-23T07:20:19.610Z,32.90
2019-01-23T07:23:21.455Z,33.80
2019-01-23T07:26:37.901Z,33.87
2019-01-23T07:32:41.463Z,33.27
2019-01-23T07:38:04.150Z,31.97
2019-01-23T07:40:23.821Z,34.77
2019-01-23T08:40:30.707Z,31.13
2019-01-23T08:46:23.008Z,32.13
2019-01-23T09:34:34.718Z,32.37
2019-01-23T09:37:22.816Z,32.20
2019-01-23T09:54:00.095Z,32.87
2019-01-23T10:15:11.449Z,28.57
2019-01-23T11:35:19.786Z,25.37
2019-01-23T11:37:23.707Z,27.37
2019-01-23T11:39:27.798Z,28.30
2019-01-23T11:41:31.665Z,30.87
2019-01-23T11:56:43.174Z,27.43
2019-01-23T12:23:50.984Z,28.93
2019-01-23T12:33:43.993Z,29.23
2019-01-23T12:42:27.154Z,29.30
2019-01-23T12:44:34.905Z,27.83
2019-01-23T12:55:03.277Z,27.07
2019-01-23T12:56:39.148Z,26.47
2019-01-23T13:08:16.247Z,28.40
2019-01-23T13:17:51.432Z,29.23
2019-01-23T13:24:06.117Z,29.10
2019-01-23T13:31:57.514Z,38.73
2019-01-23T13:34:20.326Z,22.47
2019-01-23T13:38:57.900Z,29.70
2019-01-23T13:41:11.295Z,31.87
2019-01-23T13:43:27.079Z,29.73
2019-01-23T13:45:44.315Z,29.73
2019-01-23T13:47:53.546Z,29.47
2019-01-23T13:50:47.956Z,30.47
2019-01-23T13:53:13.829Z,29.43
2019-01-23T13:55:39.502Z,32.63
2019-01-23T13:58:41.569Z,33.43
2019-01-23T14:01:45.137Z,29.17
2019-01-23T14:04:24.146Z,30.30
2019-01-23T14:06:32.510Z,32.30
2019-01-23T14:09:02.242Z,30.60
2019-01-23T14:11:25.290Z,32.87
2019-01-23T14:16:38.717Z,30.13
2019-01-23T14:19:03.546Z,30.87
2019-01-23T14:28:40.710Z,32.47
2019-01-23T15:09:04.993Z,33.77
2019-01-23T15:11:51.680Z,36.30
2019-01-23T15:19:11.116Z,32.90
2019-01-23T15:24:33.766Z,34.17
2019-01-23T15:29:11.154Z,33.00
2019-01-23T15:31:48.027Z,32.20
2019-01-23T15:40:06.930Z,28.97
2019-01-23T15:46:12.212Z,34.20
2019-01-23T15:51:36.025Z,29.83
2019-01-23T15:54:37.595Z,32.70
2019-01-23T15:58:14.145Z,33.47
2019-01-23T16:00:43.861Z,31.87
2019-01-23T16:03:02.513Z,33.33
2019-01-23T16:05:34.905Z,31.67
2019-01-23T16:22:19.771Z,31.60
2019-01-23T16:24:39.099Z,34.47
2019-01-23T16:26:40.320Z,36.77
2019-01-23T16:28:44.329Z,32.53
2019-01-23T16:30:48.439Z,33.70
2019-01-23T16:33:17.309Z,34.97
2019-01-23T16:35:39.721Z,32.23
2019-01-23T16:37:58.697Z,33.00
2019-01-23T16:40:02.591Z,31.60
2019-01-23T16:42:09.543Z,38.00
2019-01-23T16:44:31.687Z,30.37
2019-01-23T16:46:46.136Z,32.20
2019-01-23T16:49:05.927Z,32.17
2019-01-23T16:51:20.933Z,34.00
2019-01-23T16:53:59.105Z,30.40
2019-01-23T16:56:13.047Z,33.10
2019-01-23T16:58:49.887Z,31.90
2019-01-23T17:01:06.466Z,29.63
2019-01-23T17:03:10.601Z,30.80
2019-01-23T17:05:17.843Z,32.73
2019-01-23T17:07:22.001Z,31.30
2019-01-23T17:10:17.198Z,31.80
2019-01-23T17:12:12.602Z,29.13
2019-01-23T17:26:57.253Z,31.57
2019-01-23T17:29:07.401Z,31.33
2019-01-23T17:31:16.599Z,33.33
2019-01-23T17:34:20.873Z,35.57
2019-01-23T17:39:47.069Z,33.40
2019-01-23T17:41:59.120Z,30.57
2019-01-23T17:44:19.231Z,34.30
2019-01-23T17:48:52.305Z,34.60
2019-01-23T17:51:26.510Z,33.53
2019-01-23T17:53:55.370Z,37.30
2019-01-23T17:55:59.162Z,33.90
2019-01-23T17:58:08.204Z,30.40
2019-01-23T18:00:16.615Z,34.00
2019-01-23T18:05:51.248Z,32.30
2019-01-23T18:08:41.742Z,31.60
2019-01-23T18:10:47.540Z,33.57
2019-01-23T18:13:02.310Z,31.70
2019-01-23T18:15:26.517Z,31.73
2019-01-23T18:17:37.739Z,31.70
2019-01-23T18:19:58.812Z,34.33
2019-01-23T18:22:02.691Z,31.57
2019-01-23T18:24:27.513Z,31.37
2019-01-23T18:26:45.572Z,35.13
2019-01-23T18:29:06.732Z,35.23
2019-01-23T18:31:19.283Z,32.77
2019-01-23T18:33:56.221Z,36.43
2019-01-23T18:36:35.171Z,34.93
2019-01-23T18:39:46.841Z,29.87
2019-01-23T18:43:12.914Z,35.40
2019-01-23T18:49:57.146Z,45.60
2019-01-23T18:55:28.608Z,35.30
2019-01-23T18:57:48.793Z,43.40
2019-01-23T19:00:08.636Z,36.33
2019-01-23T19:02:40.053Z,40.37
2019-01-23T19:04:55.647Z,46.40
2019-01-23T19:07:19.810Z,39.87
2019-01-23T19:09:23.669Z,43.10
2019-01-23T19:11:30.449Z,44.37
2019-01-23T19:13:45.792Z,40.30
2019-01-23T19:15:57.483Z,36.07
2019-01-23T19:18:28.062Z,38.97
2019-01-23T19:21:33.254Z,36.40
2019-01-23T19:24:11.853Z,35.00
2019-01-23T19:28:17.844Z,37.00
2019-01-23T19:41:38.522Z,36.50
2019-01-23T19:44:08.621Z,36.97
2019-01-23T19:46:31.668Z,42.80
2019-01-23T19:49:13.325Z,38.10
2019-01-23T19:51:25.665Z,38.73
2019-01-23T19:53:55.477Z,39.90
2019-01-23T20:04:35.330Z,40.10
2019-01-23T20:06:52.691Z,41.07
2019-01-23T20:09:45.836Z,36.67
2019-01-23T20:12:19.422Z,36.40
2019-01-23T20:14:57.441Z,38.67
2019-01-23T20:17:19.591Z,37.20
2019-01-23T20:19:23.497Z,39.60
2019-01-23T20:21:54.982Z,38.50
2019-01-23T20:23:59.447Z,38.20
2019-01-23T20:26:03.471Z,37.73
2019-01-23T20:28:13.335Z,36.00
2019-01-23T20:30:53.380Z,36.97
2019-01-23T20:32:58.794Z,37.40
2019-01-23T20:35:24.204Z,39.57
2019-01-23T20:37:28.157Z,35.97
2019-01-23T20:39:33.123Z,38.40
2019-01-23T20:41:37.411Z,38.10
2019-01-23T20:43:48.296Z,40.33
2019-01-23T20:46:04.843Z,45.73
2019-01-23T20:48:14.155Z,37.67
2019-01-23T20:50:23.150Z,37.43
2019-01-23T20:52:26.892Z,41.73
2019-01-23T20:54:31.078Z,38.30
2019-01-23T20:56:41.124Z,35.90
2019-01-23T20:58:48.258Z,40.00
2019-01-23T21:01:01.691Z,39.17
2019-01-23T21:03:59.180Z,40.23
2019-01-23T21:06:03.162Z,40.80
2019-01-23T21:08:10.481Z,40.03
2019-01-23T21:10:15.391Z,41.90
2019-01-23T21:12:23.612Z,41.13
2019-01-23T21:14:33.412Z,41.53
2019-01-23T21:16:43.096Z,40.27
2019-01-23T21:18:48.148Z,41.40
2019-01-23T21:20:52.398Z,40.50
2019-01-23T21:22:56.476Z,41.03
2019-01-23T21:25:05.725Z,40.47
2019-01-23T21:30:25.255Z,42.33
2019-01-23T21:32:47.934Z,42.03
2019-01-23T21:35:01.594Z,44.60
2019-01-23T21:37:35.474Z,37.60
2019-01-23T21:40:13.114Z,41.17
2019-01-23T21:42:24.301Z,40.57
2019-01-23T21:44:29.967Z,40.30
2019-01-23T21:46:41.402Z,41.57
2019-01-23T21:48:54.772Z,38.77
2019-01-23T21:51:01.741Z,45.07
2019-01-23T21:53:17.361Z,41.17
2019-01-23T21:55:27.901Z,41.40
2019-01-23T21:57:37.696Z,39.93
2019-01-23T21:59:50.692Z,43.87
2019-01-23T22:02:03.308Z,41.00
2019-01-23T22:04:15.245Z,41.40
2019-01-23T22:06:32.773Z,38.97
2019-01-23T22:09:01.735Z,40.50
2019-01-23T22:11:11.761Z,44.40
2019-01-23T22:13:31.651Z,45.50
2019-01-23T22:15:39.116Z,47.40
2019-01-23T22:17:46.211Z,41.83
2019-01-23T22:19:53.908Z,46.77
2019-01-23T22:22:07.145Z,44.37
2019-01-23T22:24:16.732Z,43.07
2019-01-23T22:26:33.321Z,42.50
2019-01-23T22:28:41.888Z,43.60
2019-01-23T22:30:54.268Z,44.60
2019-01-23T22:33:06.072Z,45.83
2019-01-23T22:35:39.714Z,47.27
2019-01-23T22:37:51.627Z,44.90
2019-01-23T22:40:34.738Z,48.13
2019-01-23T22:42:37.638Z,45.40
2019-01-23T22:44:44.432Z,46.13
2019-01-23T22:46:51.726Z,45.40
2019-01-23T22:49:02.197Z,46.57
2019-01-23T22:51:06.272Z,48.20
2019-01-23T22:53:10.399Z,48.73
2019-01-23T22:55:14.567Z,47.73
2019-01-23T22:57:18.513Z,49.47
2019-01-23T22:59:22.504Z,47.70
2019-01-23T23:01:30.943Z,48.33
2019-01-23T23:03:35.016Z,51.53
2019-01-23T23:05:39.416Z,50.10
2019-01-23T23:07:43.378Z,51.67
2019-01-23T23:09:47.589Z,48.57
2019-01-23T23:11:51.525Z,48.10
2019-01-23T23:13:55.777Z,50.83
2019-01-23T23:15:59.815Z,51.73
2019-01-23T23:18:03.835Z,49.30
2019-01-23T23:20:08.445Z,47.63
2019-01-23T23:22:12.388Z,50.40
2019-01-23T23:24:16.518Z,48.77
2019-01-23T23:26:20.620Z,52.37
2019-01-23T23:28:26.007Z,54.23
2019-01-23T23:30:30.627Z,52.03
2019-01-23T23:32:36.133Z,50.33
2019-01-23T23:34:40.091Z,51.53
2019-01-23T23:36:44.072Z,52.20
2019-01-23T23:38:48.054Z,52.73
2019-01-23T23:40:51.949Z,54.50
2019-01-23T23:42:56.137Z,53.47
2019-01-23T23:47:05.359Z,53.87
2019-01-23T23:49:09.354Z,57.20
2019-01-23T23:51:13.316Z,58.87
2019-01-23T23:53:17.361Z,55.13
2019-01-23T23:55:21.413Z,55.80
2019-01-23T23:57:25.309Z,59.50
2019-01-23T23:59:29.221Z,61.73
